createdAt,value
2018-09-25T15:34:47.760Z,13.10
2018-09-25T15:37:21.518Z,13.20
2018-09-25T15:39:55.124Z,13.20
2018-09-25T15:42:28.692Z,13.10
2018-09-25T15:45:02.280Z,13.10
2018-09-25T15:47:36.885Z,13.10
2018-09-25T15:50:10.371Z,13.00
2018-09-25T15:52:43.715Z,13.00
2018-09-25T15:55:17.384Z,12.90
2018-09-25T15:57:51.075Z,12.80
2018-09-25T16:00:25.284Z,12.90
2018-09-25T16:02:58.879Z,12.90
2018-09-25T16:05:32.437Z,12.90
2018-09-25T16:08:05.780Z,12.80
2018-09-25T16:10:39.444Z,12.80
2018-09-25T16:13:12.932Z,12.80
2018-09-25T16:15:46.076Z,12.80
2018-09-25T16:18:19.672Z,12.70
2018-09-25T16:20:53.203Z,12.60
2018-09-25T16:23:26.700Z,12.60
2018-09-25T16:26:00.054Z,12.50
2018-09-25T16:28:33.685Z,12.50
2018-09-25T16:31:07.480Z,12.50
2018-09-25T16:33:41.136Z,12.40
2018-09-25T16:36:14.620Z,12.30
2018-09-25T16:38:48.162Z,12.30
2018-09-25T16:41:21.663Z,12.20
2018-09-25T16:43:54.956Z,12.20
2018-09-25T16:46:28.337Z,12.10
2018-09-25T16:49:01.889Z,12.10
2018-09-25T16:51:35.148Z,12.10
2018-09-25T16:54:08.546Z,12.00
2018-09-25T16:56:42.029Z,11.90
2018-09-25T16:59:15.484Z,11.80
2018-09-25T17:01:48.889Z,11.80
2018-09-25T17:04:22.508Z,11.70
2018-09-25T17:06:55.998Z,11.70
2018-09-25T17:09:29.484Z,11.60
2018-09-25T17:12:03.141Z,11.50
2018-09-25T17:14:36.642Z,11.50
2018-09-25T17:17:09.992Z,11.40
2018-09-25T17:19:43.743Z,11.40
2018-09-25T17:22:17.424Z,11.30
2018-09-25T17:24:50.904Z,11.30
2018-09-25T17:27:24.525Z,11.20
2018-09-25T17:29:58.152Z,11.20
2018-09-25T17:32:31.732Z,11.10
2018-09-25T17:35:05.408Z,10.90
2018-09-25T17:37:38.913Z,10.90
2018-09-25T17:40:12.389Z,10.90
2018-09-25T17:42:45.895Z,10.70
2018-09-25T17:45:19.417Z,10.70
2018-09-25T17:47:52.896Z,10.70
2018-09-25T17:50:26.050Z,10.70
2018-09-25T17:52:59.556Z,10.60
2018-09-25T17:55:33.009Z,10.50
2018-09-25T17:58:06.717Z,10.40
2018-09-25T18:00:40.284Z,10.40
2018-09-25T18:03:13.596Z,10.30
2018-09-25T18:05:47.041Z,10.40
2018-09-25T18:08:20.519Z,10.40
2018-09-25T18:10:54.136Z,10.50
2018-09-25T18:13:27.589Z,10.40
2018-09-25T18:16:01.048Z,10.40
2018-09-25T18:18:34.781Z,10.30
2018-09-25T18:21:08.749Z,10.30
2018-09-25T18:23:42.425Z,10.20
2018-09-25T18:28:52.604Z,10.30
2018-09-25T18:31:26.141Z,10.10
2018-09-25T18:33:59.833Z,10.00
2018-09-25T18:36:33.477Z,9.80
2018-09-25T18:39:06.836Z,9.80
2018-09-25T18:41:40.368Z,9.80
2018-09-25T18:44:13.884Z,9.80
2018-09-25T18:46:47.579Z,9.80
2018-09-25T18:49:20.946Z,9.90
2018-09-25T18:51:56.447Z,9.80
2018-09-25T18:54:29.938Z,9.80
2018-09-25T18:57:03.548Z,9.70
2018-09-25T18:59:37.956Z,9.70
2018-09-25T19:02:11.596Z,9.70
2018-09-25T19:04:45.095Z,9.70
2018-09-25T19:07:18.637Z,9.70
2018-09-25T19:09:52.117Z,9.70
2018-09-25T19:12:25.637Z,9.60
2018-09-25T19:14:58.992Z,9.50
2018-09-25T19:17:32.475Z,9.50
2018-09-25T19:20:06.103Z,9.50
2018-09-25T19:22:39.605Z,9.50
2018-09-25T19:25:13.228Z,9.60
2018-09-25T19:27:46.744Z,9.70
2018-09-25T19:30:20.633Z,9.50
2018-09-25T19:32:54.209Z,9.50
2018-09-25T19:35:27.845Z,9.40
2018-09-25T19:38:01.818Z,9.40
2018-09-25T19:40:35.516Z,9.40
2018-09-25T19:43:09.036Z,9.30
2018-09-25T19:45:42.444Z,9.30
2018-09-25T19:48:16.144Z,9.10
2018-09-25T19:50:49.652Z,9.10
2018-09-25T19:53:22.918Z,9.00
2018-09-25T19:55:56.589Z,9.00
2018-09-25T19:58:30.080Z,9.10
2018-09-25T20:01:03.821Z,9.00
2018-09-25T20:03:37.516Z,9.00
2018-09-25T20:06:11.332Z,9.00
2018-09-25T20:08:44.837Z,9.00
2018-09-25T20:11:18.422Z,9.00
2018-09-25T20:13:52.017Z,9.00
2018-09-25T20:16:25.557Z,8.70
2018-09-25T20:18:59.075Z,8.80
2018-09-25T20:21:32.890Z,8.70
2018-09-25T20:24:06.377Z,8.50
2018-09-25T20:26:40.399Z,8.60
2018-09-25T20:29:20.549Z,8.60
2018-09-25T20:31:54.317Z,8.60
2018-09-25T20:34:28.300Z,8.50
2018-09-25T20:37:01.858Z,8.30
2018-09-25T20:39:35.633Z,8.30
2018-09-25T20:42:09.405Z,8.30
2018-09-25T20:44:42.771Z,8.20
2018-09-25T20:47:16.549Z,8.10
2018-09-25T20:49:50.335Z,7.90
2018-09-25T20:52:23.496Z,7.90
2018-09-25T20:54:56.901Z,8.00
2018-09-25T20:57:30.330Z,8.10
2018-09-25T21:00:04.361Z,7.90
2018-09-25T21:02:38.999Z,7.70
2018-09-25T21:05:19.115Z,7.80
2018-09-25T21:08:01.986Z,7.70
2018-09-25T21:10:35.456Z,7.60
2018-09-25T21:13:08.956Z,7.90
2018-09-25T21:15:42.692Z,7.80
2018-09-25T21:18:16.128Z,7.70
2018-09-25T21:20:49.743Z,7.50
2018-09-25T21:23:23.274Z,7.30
2018-09-25T21:25:56.618Z,7.10
2018-09-25T21:28:30.105Z,7.10
2018-09-25T21:31:03.772Z,7.00
2018-09-25T21:33:37.187Z,7.10
2018-09-25T21:36:10.842Z,7.20
2018-09-25T21:38:44.284Z,7.30
2018-09-25T21:41:17.739Z,7.30
2018-09-25T21:43:51.309Z,7.20
2018-09-25T21:46:24.633Z,7.40
2018-09-25T21:48:58.341Z,7.40
2018-09-25T21:51:32.275Z,7.60
2018-09-25T21:56:40.096Z,7.60
2018-09-25T21:59:13.757Z,7.60
2018-09-25T22:01:47.249Z,7.50
2018-09-25T22:04:21.148Z,7.40
2018-09-25T22:06:54.641Z,7.30
2018-09-25T22:09:28.301Z,7.20
2018-09-25T22:12:01.892Z,7.20
2018-09-25T22:14:35.894Z,7.30
2018-09-25T22:17:09.368Z,7.20
2018-09-25T22:19:43.373Z,7.50
2018-09-25T22:24:50.597Z,7.40
2018-09-25T22:27:24.070Z,7.40
2018-09-25T22:29:57.476Z,7.30
2018-09-25T22:32:30.920Z,7.20
2018-09-25T22:35:04.252Z,7.20
2018-09-25T22:37:37.753Z,7.20
2018-09-25T22:40:11.324Z,7.00
2018-09-25T22:42:45.032Z,6.90
2018-09-25T22:48:21.841Z,6.90
2018-09-25T22:50:55.741Z,7.00
2018-09-25T22:53:29.167Z,6.90
2018-09-25T22:56:03.042Z,6.80
2018-09-25T22:58:36.517Z,6.70
2018-09-25T23:01:10.096Z,6.70
2018-09-25T23:03:43.739Z,6.80
2018-09-25T23:06:17.404Z,6.80
2018-09-25T23:08:50.841Z,6.60
2018-09-25T23:11:24.285Z,6.70
2018-09-25T23:13:57.854Z,6.50
2018-09-25T23:16:31.316Z,6.50
2018-09-25T23:19:04.756Z,6.80
2018-09-25T23:21:38.253Z,6.90
2018-09-25T23:24:11.645Z,6.90
2018-09-25T23:26:45.152Z,7.00
2018-09-25T23:29:18.761Z,6.90
2018-09-25T23:31:52.161Z,6.80
2018-09-25T23:34:25.478Z,6.70
2018-09-25T23:36:58.952Z,6.60
2018-09-25T23:39:34.231Z,6.60
2018-09-25T23:42:08.477Z,6.50
2018-09-25T23:44:43.848Z,6.60
2018-09-25T23:47:17.062Z,6.60
2018-09-25T23:49:52.302Z,6.70
2018-09-25T23:53:24.300Z,6.50
2018-09-25T23:55:56.794Z,6.40
2018-09-25T23:58:28.988Z,6.30
